sensor_id;sensor_type;location;lat;lon;timestamp;temperature;humidity
20722;DHT22;10522;52.198;9.890;2023-04-02T00:01:46;3.90;99.90
20722;DHT22;10522;52.198;9.890;2023-04-02T00:04:18;3.90;99.90
20722;DHT22;10522;52.198;9.890;2023-04-02T00:06:49;3.90;99.90
20722;DHT22;10522;52.198;9.890;2023-04-02T00:09:29;3.80;99.90
20722;DHT22;10522;52.198;9.890;2023-04-02T00:11:55;3.80;99.90
20722;DHT22;10522;52.198;9.890;2023-04-02T00:14:30;3.90;99.90
20722;DHT22;10522;52.198;9.890;2023-04-02T00:16:57;3.80;99.90
20722;DHT22;10522;52.198;9.890;2023-04-02T00:19:44;3.70;99.90
20722;DHT22;10522;52.198;9.890;2023-04-02T00:22:27;3.70;99.90
20722;DHT22;10522;52.198;9.890;2023-04-02T00:24:55;3.60;99.90
20722;DHT22;10522;52.198;9.890;2023-04-02T00:27:21;3.60;99.90
20722;DHT22;10522;52.198;9.890;2023-04-02T00:29:49;3.50;99.90
20722;DHT22;10522;52.198;9.890;2023-04-02T00:32:19;3.40;99.90
20722;DHT22;10522;52.198;9.890;2023-04-02T00:34:46;3.40;99.90
20722;DHT22;10522;52.198;9.890;2023-04-02T00:37:19;3.40;99.90
20722;DHT22;10522;52.198;9.890;2023-04-02T00:39:49;3.40;99.90
20722;DHT22;10522;52.198;9.890;2023-04-02T00:42:16;3.40;99.90
20722;DHT22;10522;52.198;9.890;2023-04-02T00:44:44;3.40;99.90
20722;DHT22;10522;52.198;9.890;2023-04-02T00:47:25;3.30;99.90
20722;DHT22;10522;52.198;9.890;2023-04-02T00:50:05;3.30;99.90
20722;DHT22;10522;52.198;9.890;2023-04-02T00:52:32;3.30;99.90
20722;DHT22;10522;52.198;9.890;2023-04-02T00:57:36;3.20;99.90
20722;DHT22;10522;52.198;9.890;2023-04-02T01:00:24;3.20;99.90
20722;DHT22;10522;52.198;9.890;2023-04-02T01:06:05;3.20;99.90
20722;DHT22;10522;52.198;9.890;2023-04-02T01:15:26;3.10;99.90
20722;DHT22;10522;52.198;9.890;2023-04-02T01:19:22;3.20;99.90
20722;DHT22;10522;52.198;9.890;2023-04-02T01:21:37;3.10;99.90
20722;DHT22;10522;52.198;9.890;2023-04-02T01:24:14;3.10;99.90
20722;DHT22;10522;52.198;9.890;2023-04-02T01:26:56;3.10;99.90
20722;DHT22;10522;52.198;9.890;2023-04-02T01:29:37;3.10;99.90
20722;DHT22;10522;52.198;9.890;2023-04-02T01:32:13;3.10;99.90
20722;DHT22;10522;52.198;9.890;2023-04-02T01:34:40;3.10;99.90
20722;DHT22;10522;52.198;9.890;2023-04-02T01:45:36;3.00;99.90
20722;DHT22;10522;52.198;9.890;2023-04-02T01:48:12;3.00;99.90
20722;DHT22;10522;52.198;9.890;2023-04-02T01:50:40;3.00;99.90
20722;DHT22;10522;52.198;9.890;2023-04-02T01:53:13;2.90;99.90
20722;DHT22;10522;52.198;9.890;2023-04-02T01:55:46;2.90;99.90
20722;DHT22;10522;52.198;9.890;2023-04-02T01:58:15;2.90;99.90
20722;DHT22;10522;52.198;9.890;2023-04-02T02:00:58;3.00;99.90
20722;DHT22;10522;52.198;9.890;2023-04-02T02:03:26;2.90;99.90
20722;DHT22;10522;52.198;9.890;2023-04-02T02:05:52;2.90;99.90
20722;DHT22;10522;52.198;9.890;2023-04-02T02:08:48;2.80;99.90
20722;DHT22;10522;52.198;9.890;2023-04-02T02:11:22;2.80;99.90
20722;DHT22;10522;52.198;9.890;2023-04-02T02:13:59;2.80;99.90
20722;DHT22;10522;52.198;9.890;2023-04-02T02:16:26;2.80;99.90
20722;DHT22;10522;52.198;9.890;2023-04-02T02:18:55;2.80;99.90
20722;DHT22;10522;52.198;9.890;2023-04-02T02:21:32;2.80;99.90
20722;DHT22;10522;52.198;9.890;2023-04-02T02:24:01;2.80;99.90
20722;DHT22;10522;52.198;9.890;2023-04-02T02:26:31;2.80;99.90
20722;DHT22;10522;52.198;9.890;2023-04-02T02:28:59;2.80;99.90
20722;DHT22;10522;52.198;9.890;2023-04-02T02:31:31;2.80;99.90
20722;DHT22;10522;52.198;9.890;2023-04-02T02:34:03;2.80;99.90
20722;DHT22;10522;52.198;9.890;2023-04-02T02:36:55;2.70;99.90
20722;DHT22;10522;52.198;9.890;2023-04-02T02:39:33;2.80;99.90
20722;DHT22;10522;52.198;9.890;2023-04-02T02:42:17;2.80;99.90
20722;DHT22;10522;52.198;9.890;2023-04-02T02:44:48;2.70;99.90
20722;DHT22;10522;52.198;9.890;2023-04-02T02:47:22;2.80;99.90
20722;DHT22;10522;52.198;9.890;2023-04-02T02:49:51;2.70;99.90
20722;DHT22;10522;52.198;9.890;2023-04-02T02:52:25;2.70;99.90
20722;DHT22;10522;52.198;9.890;2023-04-02T02:55:01;2.80;99.90
20722;DHT22;10522;52.198;9.890;2023-04-02T02:57:33;2.80;99.90
20722;DHT22;10522;52.198;9.890;2023-04-02T03:00:00;2.70;99.90
20722;DHT22;10522;52.198;9.890;2023-04-02T03:02:27;2.70;99.90
20722;DHT22;10522;52.198;9.890;2023-04-02T03:04:55;2.70;99.90
20722;DHT22;10522;52.198;9.890;2023-04-02T03:07:24;2.70;99.90
20722;DHT22;10522;52.198;9.890;2023-04-02T03:17:59;2.70;99.90
20722;DHT22;10522;52.198;9.890;2023-04-02T03:20:34;2.70;99.90
20722;DHT22;10522;52.198;9.890;2023-04-02T03:25:55;2.70;99.90
20722;DHT22;10522;52.198;9.890;2023-04-02T03:28:28;2.70;99.90
20722;DHT22;10522;52.198;9.890;2023-04-02T03:31:52;2.70;99.90
20722;DHT22;10522;52.198;9.890;2023-04-02T03:34:36;2.70;99.90
20722;DHT22;10522;52.198;9.890;2023-04-02T03:37:09;2.70;99.90
20722;DHT22;10522;52.198;9.890;2023-04-02T03:39:42;2.70;99.90
20722;DHT22;10522;52.198;9.890;2023-04-02T03:42:22;2.70;99.90
20722;DHT22;10522;52.198;9.890;2023-04-02T03:45:03;2.70;99.90
20722;DHT22;10522;52.198;9.890;2023-04-02T03:47:41;2.70;99.90
20722;DHT22;10522;52.198;9.890;2023-04-02T03:50:14;2.70;99.90
20722;DHT22;10522;52.198;9.890;2023-04-02T03:52:42;2.70;99.90
20722;DHT22;10522;52.198;9.890;2023-04-02T03:55:16;2.70;99.90
20722;DHT22;10522;52.198;9.890;2023-04-02T03:58:07;2.70;99.90
20722;DHT22;10522;52.198;9.890;2023-04-02T04:00:40;2.70;99.90
20722;DHT22;10522;52.198;9.890;2023-04-02T04:03:15;2.70;99.90
20722;DHT22;10522;52.198;9.890;2023-04-02T04:05:56;2.70;99.90
20722;DHT22;10522;52.198;9.890;2023-04-02T04:11:32;2.70;99.90
20722;DHT22;10522;52.198;9.890;2023-04-02T04:14:17;2.70;99.90
20722;DHT22;10522;52.198;9.890;2023-04-02T04:22:17;2.60;99.90
20722;DHT22;10522;52.198;9.890;2023-04-02T04:24:45;2.70;99.90
20722;DHT22;10522;52.198;9.890;2023-04-02T04:27:25;2.60;99.90
20722;DHT22;10522;52.198;9.890;2023-04-02T04:30:13;2.70;99.90
20722;DHT22;10522;52.198;9.890;2023-04-02T04:32:48;2.70;99.90
20722;DHT22;10522;52.198;9.890;2023-04-02T04:35:35;2.70;99.90
20722;DHT22;10522;52.198;9.890;2023-04-02T04:38:24;2.70;99.90
20722;DHT22;10522;52.198;9.890;2023-04-02T04:41:02;2.70;99.90
20722;DHT22;10522;52.198;9.890;2023-04-02T04:43:58;2.70;99.90
20722;DHT22;10522;52.198;9.890;2023-04-02T04:47:14;2.70;99.90
20722;DHT22;10522;52.198;9.890;2023-04-02T04:49:19;2.70;99.90
20722;DHT22;10522;52.198;9.890;2023-04-02T04:52:15;2.70;99.90
20722;DHT22;10522;52.198;9.890;2023-04-02T04:54:42;2.70;99.90
20722;DHT22;10522;52.198;9.890;2023-04-02T04:57:34;2.80;99.90
20722;DHT22;10522;52.198;9.890;2023-04-02T05:00:21;2.80;99.90
20722;DHT22;10522;52.198;9.890;2023-04-02T05:03:05;2.80;99.90
20722;DHT22;10522;52.198;9.890;2023-04-02T05:05:37;2.80;99.90
20722;DHT22;10522;52.198;9.890;2023-04-02T05:08:12;2.80;99.90
20722;DHT22;10522;52.198;9.890;2023-04-02T05:10:51;2.70;99.90
20722;DHT22;10522;52.198;9.890;2023-04-02T05:13:28;2.70;99.90
20722;DHT22;10522;52.198;9.890;2023-04-02T05:19:17;2.80;99.90
20722;DHT22;10522;52.198;9.890;2023-04-02T05:25:18;2.80;99.90
20722;DHT22;10522;52.198;9.890;2023-04-02T05:32:54;2.80;99.90
20722;DHT22;10522;52.198;9.890;2023-04-02T05:35:27;2.80;99.90
20722;DHT22;10522;52.198;9.890;2023-04-02T05:37:53;2.80;99.90
20722;DHT22;10522;52.198;9.890;2023-04-02T05:40:24;2.80;99.90
20722;DHT22;10522;52.198;9.890;2023-04-02T05:42:51;2.90;99.90
20722;DHT22;10522;52.198;9.890;2023-04-02T05:45:31;2.90;99.90
20722;DHT22;10522;52.198;9.890;2023-04-02T05:48:02;2.80;99.90
20722;DHT22;10522;52.198;9.890;2023-04-02T05:50:33;3.00;99.90
20722;DHT22;10522;52.198;9.890;2023-04-02T05:53:03;3.00;99.90
20722;DHT22;10522;52.198;9.890;2023-04-02T05:55:41;2.90;99.90
20722;DHT22;10522;52.198;9.890;2023-04-02T05:58:33;2.90;99.90
20722;DHT22;10522;52.198;9.890;2023-04-02T06:01:15;2.90;99.90
20722;DHT22;10522;52.198;9.890;2023-04-02T06:14:43;3.10;99.90
20722;DHT22;10522;52.198;9.890;2023-04-02T06:17:15;3.10;99.90
20722;DHT22;10522;52.198;9.890;2023-04-02T06:19:41;3.10;99.90
20722;DHT22;10522;52.198;9.890;2023-04-02T06:22:21;3.10;99.90
20722;DHT22;10522;52.198;9.890;2023-04-02T06:24:54;3.10;99.90
20722;DHT22;10522;52.198;9.890;2023-04-02T06:27:23;3.10;99.90
20722;DHT22;10522;52.198;9.890;2023-04-02T06:29:52;3.10;99.90
20722;DHT22;10522;52.198;9.890;2023-04-02T06:32:22;3.10;99.90
20722;DHT22;10522;52.198;9.890;2023-04-02T06:34:50;3.20;99.90
20722;DHT22;10522;52.198;9.890;2023-04-02T06:37:39;3.20;99.90
20722;DHT22;10522;52.198;9.890;2023-04-02T06:40:32;3.20;99.90
20722;DHT22;10522;52.198;9.890;2023-04-02T06:42:59;3.30;99.90
20722;DHT22;10522;52.198;9.890;2023-04-02T06:45:31;3.30;99.90
20722;DHT22;10522;52.198;9.890;2023-04-02T06:47:59;3.30;99.90
20722;DHT22;10522;52.198;9.890;2023-04-02T06:50:48;3.40;99.90
20722;DHT22;10522;52.198;9.890;2023-04-02T06:53:28;3.30;99.90
20722;DHT22;10522;52.198;9.890;2023-04-02T06:56:07;3.30;99.90
20722;DHT22;10522;52.198;9.890;2023-04-02T06:58:36;3.30;99.90
20722;DHT22;10522;52.198;9.890;2023-04-02T07:01:02;3.40;99.90
20722;DHT22;10522;52.198;9.890;2023-04-02T07:03:30;3.30;99.90
20722;DHT22;10522;52.198;9.890;2023-04-02T07:05:58;3.40;99.90
20722;DHT22;10522;52.198;9.890;2023-04-02T07:08:25;3.30;99.90
20722;DHT22;10522;52.198;9.890;2023-04-02T07:10:50;3.40;99.90
20722;DHT22;10522;52.198;9.890;2023-04-02T07:13:23;3.30;99.90
20722;DHT22;10522;52.198;9.890;2023-04-02T07:15:52;3.50;99.90
20722;DHT22;10522;52.198;9.890;2023-04-02T07:18:30;3.40;99.90
20722;DHT22;10522;52.198;9.890;2023-04-02T07:20:56;3.50;99.90
20722;DHT22;10522;52.198;9.890;2023-04-02T07:23:22;3.50;99.90
20722;DHT22;10522;52.198;9.890;2023-04-02T07:25:49;3.50;99.90
20722;DHT22;10522;52.198;9.890;2023-04-02T07:28:15;3.50;99.90
20722;DHT22;10522;52.198;9.890;2023-04-02T07:30:41;3.60;99.90
20722;DHT22;10522;52.198;9.890;2023-04-02T07:33:12;3.60;99.90
20722;DHT22;10522;52.198;9.890;2023-04-02T07:35:38;3.60;99.90
20722;DHT22;10522;52.198;9.890;2023-04-02T07:38:03;3.80;99.90
20722;DHT22;10522;52.198;9.890;2023-04-02T07:40:29;3.80;99.90
20722;DHT22;10522;52.198;9.890;2023-04-02T07:42:55;3.80;99.90
20722;DHT22;10522;52.198;9.890;2023-04-02T07:45:20;3.70;99.90
20722;DHT22;10522;52.198;9.890;2023-04-02T07:47:46;3.80;99.90
20722;DHT22;10522;52.198;9.890;2023-04-02T07:50:11;3.70;99.90
20722;DHT22;10522;52.198;9.890;2023-04-02T07:52:39;3.80;99.90
20722;DHT22;10522;52.198;9.890;2023-04-02T07:55:10;3.80;99.90
20722;DHT22;10522;52.198;9.890;2023-04-02T07:57:48;3.90;99.90
20722;DHT22;10522;52.198;9.890;2023-04-02T08:00:14;3.80;99.90
20722;DHT22;10522;52.198;9.890;2023-04-02T08:02:40;3.80;99.90
20722;DHT22;10522;52.198;9.890;2023-04-02T08:05:07;3.80;99.90
20722;DHT22;10522;52.198;9.890;2023-04-02T08:07:33;3.90;99.90
20722;DHT22;10522;52.198;9.890;2023-04-02T08:09:59;3.90;99.90
20722;DHT22;10522;52.198;9.890;2023-04-02T08:12:25;3.90;99.90
20722;DHT22;10522;52.198;9.890;2023-04-02T08:14:51;3.90;99.90
20722;DHT22;10522;52.198;9.890;2023-04-02T08:17:16;4.00;99.90
20722;DHT22;10522;52.198;9.890;2023-04-02T08:19:42;4.00;99.90
20722;DHT22;10522;52.198;9.890;2023-04-02T08:22:38;4.00;99.90
20722;DHT22;10522;52.198;9.890;2023-04-02T08:25:28;4.00;99.90
20722;DHT22;10522;52.198;9.890;2023-04-02T08:28:04;4.10;99.90
20722;DHT22;10522;52.198;9.890;2023-04-02T08:30:30;4.10;99.90
20722;DHT22;10522;52.198;9.890;2023-04-02T08:32:55;4.10;99.90
20722;DHT22;10522;52.198;9.890;2023-04-02T08:35:21;4.20;99.90
20722;DHT22;10522;52.198;9.890;2023-04-02T08:37:47;4.20;99.90
20722;DHT22;10522;52.198;9.890;2023-04-02T08:40:38;4.30;99.90
20722;DHT22;10522;52.198;9.890;2023-04-02T08:48:21;4.20;99.90
20722;DHT22;10522;52.198;9.890;2023-04-02T08:50:49;4.10;99.90
20722;DHT22;10522;52.198;9.890;2023-04-02T08:53:21;4.10;99.90
20722;DHT22;10522;52.198;9.890;2023-04-02T08:56:11;4.20;99.90
20722;DHT22;10522;52.198;9.890;2023-04-02T08:58:47;4.30;99.90
20722;DHT22;10522;52.198;9.890;2023-04-02T09:01:43;4.20;99.90
20722;DHT22;10522;52.198;9.890;2023-04-02T09:04:20;4.30;99.90
20722;DHT22;10522;52.198;9.890;2023-04-02T09:06:47;4.30;99.90
20722;DHT22;10522;52.198;9.890;2023-04-02T09:09:14;4.20;99.90
20722;DHT22;10522;52.198;9.890;2023-04-02T09:11:58;4.20;99.90
20722;DHT22;10522;52.198;9.890;2023-04-02T09:17:20;4.30;99.90
20722;DHT22;10522;52.198;9.890;2023-04-02T09:22:27;4.50;99.90
20722;DHT22;10522;52.198;9.890;2023-04-02T09:25:01;4.60;99.90
20722;DHT22;10522;52.198;9.890;2023-04-02T09:27:34;4.50;99.90
20722;DHT22;10522;52.198;9.890;2023-04-02T09:32:55;4.50;99.90
20722;DHT22;10522;52.198;9.890;2023-04-02T09:35:26;4.50;99.90
20722;DHT22;10522;52.198;9.890;2023-04-02T09:38:19;4.60;99.90
20722;DHT22;10522;52.198;9.890;2023-04-02T09:40:46;4.70;99.90
20722;DHT22;10522;52.198;9.890;2023-04-02T09:43:15;4.80;99.90
20722;DHT22;10522;52.198;9.890;2023-04-02T09:45:42;4.60;99.90
20722;DHT22;10522;52.198;9.890;2023-04-02T09:48:37;4.50;99.90
20722;DHT22;10522;52.198;9.890;2023-04-02T09:51:13;4.50;99.90
20722;DHT22;10522;52.198;9.890;2023-04-02T09:53:43;4.80;99.90
20722;DHT22;10522;52.198;9.890;2023-04-02T09:56:18;4.70;99.90
20722;DHT22;10522;52.198;9.890;2023-04-02T09:59:04;4.70;99.90
20722;DHT22;10522;52.198;9.890;2023-04-02T10:01:32;4.70;99.90
20722;DHT22;10522;52.198;9.890;2023-04-02T10:03:58;4.60;99.90
20722;DHT22;10522;52.198;9.890;2023-04-02T10:06:26;4.70;99.90
20722;DHT22;10522;52.198;9.890;2023-04-02T10:08:52;4.60;99.90
20722;DHT22;10522;52.198;9.890;2023-04-02T10:11:31;4.60;99.90
20722;DHT22;10522;52.198;9.890;2023-04-02T10:14:22;4.50;99.90
20722;DHT22;10522;52.198;9.890;2023-04-02T10:16:51;4.50;99.90
20722;DHT22;10522;52.198;9.890;2023-04-02T10:19:35;4.60;99.90
20722;DHT22;10522;52.198;9.890;2023-04-02T10:22:12;4.60;99.90
20722;DHT22;10522;52.198;9.890;2023-04-02T10:24:38;4.70;99.90
20722;DHT22;10522;52.198;9.890;2023-04-02T10:30:17;4.90;99.90
20722;DHT22;10522;52.198;9.890;2023-04-02T10:33:05;5.10;99.90
20722;DHT22;10522;52.198;9.890;2023-04-02T10:35:46;5.10;99.90
20722;DHT22;10522;52.198;9.890;2023-04-02T10:38:38;5.20;99.90
20722;DHT22;10522;52.198;9.890;2023-04-02T10:41:38;5.20;99.90
20722;DHT22;10522;52.198;9.890;2023-04-02T10:54:54;5.40;99.90
20722;DHT22;10522;52.198;9.890;2023-04-02T10:57:42;5.30;99.90
20722;DHT22;10522;52.198;9.890;2023-04-02T11:03:01;5.60;99.90
20722;DHT22;10522;52.198;9.890;2023-04-02T11:06:21;5.70;99.90
20722;DHT22;10522;52.198;9.890;2023-04-02T11:08:51;6.00;99.90
20722;DHT22;10522;52.198;9.890;2023-04-02T11:14:08;5.80;99.90
20722;DHT22;10522;52.198;9.890;2023-04-02T11:16:36;5.90;99.90
20722;DHT22;10522;52.198;9.890;2023-04-02T11:24:24;6.20;99.90
20722;DHT22;10522;52.198;9.890;2023-04-02T11:26:51;6.50;99.90
20722;DHT22;10522;52.198;9.890;2023-04-02T11:29:21;6.60;99.90
20722;DHT22;10522;52.198;9.890;2023-04-02T11:31:49;6.70;99.90
20722;DHT22;10522;52.198;9.890;2023-04-02T11:37:09;6.40;99.90
20722;DHT22;10522;52.198;9.890;2023-04-02T11:39:50;6.40;99.90
20722;DHT22;10522;52.198;9.890;2023-04-02T11:44:57;6.00;99.90
20722;DHT22;10522;52.198;9.890;2023-04-02T11:47:24;6.20;99.90
20722;DHT22;10522;52.198;9.890;2023-04-02T11:52:28;6.40;99.90
20722;DHT22;10522;52.198;9.890;2023-04-02T12:00:29;6.40;99.90
20722;DHT22;10522;52.198;9.890;2023-04-02T12:03:11;6.50;99.90
20722;DHT22;10522;52.198;9.890;2023-04-02T12:05:51;6.80;99.90
20722;DHT22;10522;52.198;9.890;2023-04-02T12:08:39;7.20;99.90
20722;DHT22;10522;52.198;9.890;2023-04-02T12:11:11;7.50;99.90
20722;DHT22;10522;52.198;9.890;2023-04-02T12:16:11;7.30;99.90
20722;DHT22;10522;52.198;9.890;2023-04-02T12:18:46;7.10;99.90
20722;DHT22;10522;52.198;9.890;2023-04-02T12:21:21;7.10;99.90
20722;DHT22;10522;52.198;9.890;2023-04-02T12:23:48;6.70;99.90
20722;DHT22;10522;52.198;9.890;2023-04-02T12:26:36;6.50;99.90
20722;DHT22;10522;52.198;9.890;2023-04-02T12:29:25;6.30;99.90
20722;DHT22;10522;52.198;9.890;2023-04-02T12:31:56;6.00;99.90
20722;DHT22;10522;52.198;9.890;2023-04-02T12:34:24;6.40;99.90
20722;DHT22;10522;52.198;9.890;2023-04-02T12:37:01;6.50;99.90
20722;DHT22;10522;52.198;9.890;2023-04-02T12:40:03;7.10;99.90
20722;DHT22;10522;52.198;9.890;2023-04-02T12:48:04;8.10;99.90
20722;DHT22;10522;52.198;9.890;2023-04-02T12:50:33;8.80;99.90
20722;DHT22;10522;52.198;9.890;2023-04-02T12:58:28;9.60;99.90
20722;DHT22;10522;52.198;9.890;2023-04-02T13:01:16;9.60;99.90
20722;DHT22;10522;52.198;9.890;2023-04-02T13:06:26;9.60;99.90
20722;DHT22;10522;52.198;9.890;2023-04-02T13:08:53;9.70;99.90
20722;DHT22;10522;52.198;9.890;2023-04-02T13:11:19;10.00;99.90
20722;DHT22;10522;52.198;9.890;2023-04-02T13:13:47;10.20;99.90
20722;DHT22;10522;52.198;9.890;2023-04-02T13:23:58;10.50;99.90
20722;DHT22;10522;52.198;9.890;2023-04-02T13:26:25;10.40;99.90
20722;DHT22;10522;52.198;9.890;2023-04-02T13:29:17;10.50;99.90
20722;DHT22;10522;52.198;9.890;2023-04-02T13:31:43;10.80;99.90
20722;DHT22;10522;52.198;9.890;2023-04-02T13:34:09;11.00;99.90
20722;DHT22;10522;52.198;9.890;2023-04-02T13:36:35;10.30;99.90
20722;DHT22;10522;52.198;9.890;2023-04-02T13:39:01;10.40;99.90
20722;DHT22;10522;52.198;9.890;2023-04-02T13:42:13;10.70;99.90
20722;DHT22;10522;52.198;9.890;2023-04-02T13:44:25;10.90;99.90
20722;DHT22;10522;52.198;9.890;2023-04-02T13:46:52;10.90;99.90
20722;DHT22;10522;52.198;9.890;2023-04-02T13:49:18;10.60;99.90
20722;DHT22;10522;52.198;9.890;2023-04-02T13:51:47;11.20;99.90
20722;DHT22;10522;52.198;9.890;2023-04-02T13:54:26;10.40;99.90
20722;DHT22;10522;52.198;9.890;2023-04-02T13:56:55;10.10;99.90
20722;DHT22;10522;52.198;9.890;2023-04-02T13:59:21;9.40;99.90
20722;DHT22;10522;52.198;9.890;2023-04-02T14:01:52;9.10;99.90
20722;DHT22;10522;52.198;9.890;2023-04-02T14:04:24;8.80;99.90
20722;DHT22;10522;52.198;9.890;2023-04-02T14:09:52;8.30;99.90
20722;DHT22;10522;52.198;9.890;2023-04-02T14:20:21;8.30;99.90
20722;DHT22;10522;52.198;9.890;2023-04-02T14:31:41;8.70;99.90
20722;DHT22;10522;52.198;9.890;2023-04-02T14:34:16;9.30;99.90
20722;DHT22;10522;52.198;9.890;2023-04-02T14:39:41;9.90;99.90
20722;DHT22;10522;52.198;9.890;2023-04-02T14:42:43;9.40;99.90
20722;DHT22;10522;52.198;9.890;2023-04-02T14:48:03;12.00;99.90
20722;DHT22;10522;52.198;9.890;2023-04-02T14:50:39;12.40;99.90
20722;DHT22;10522;52.198;9.890;2023-04-02T14:53:31;10.70;99.90
20722;DHT22;10522;52.198;9.890;2023-04-02T14:56:05;9.40;99.90
20722;DHT22;10522;52.198;9.890;2023-04-02T14:58:44;8.80;99.90
20722;DHT22;10522;52.198;9.890;2023-04-02T15:01:20;8.50;99.90
20722;DHT22;10522;52.198;9.890;2023-04-02T15:04:13;8.20;99.90
20722;DHT22;10522;52.198;9.890;2023-04-02T15:06:48;7.90;99.90
20722;DHT22;10522;52.198;9.890;2023-04-02T15:09:22;7.90;99.90
20722;DHT22;10522;52.198;9.890;2023-04-02T15:12:00;9.50;99.90
20722;DHT22;10522;52.198;9.890;2023-04-02T15:14:35;12.20;99.90
20722;DHT22;10522;52.198;9.890;2023-04-02T15:17:09;12.40;99.90
20722;DHT22;10522;52.198;9.890;2023-04-02T15:19:35;10.60;99.90
20722;DHT22;10522;52.198;9.890;2023-04-02T15:27:53;8.40;99.90
20722;DHT22;10522;52.198;9.890;2023-04-02T15:30:24;8.20;99.90
20722;DHT22;10522;52.198;9.890;2023-04-02T15:32:50;9.50;99.90
20722;DHT22;10522;52.198;9.890;2023-04-02T15:38:21;12.90;99.90
20722;DHT22;10522;52.198;9.890;2023-04-02T15:41:03;12.00;99.90
20722;DHT22;10522;52.198;9.890;2023-04-02T15:43:44;10.80;99.90
20722;DHT22;10522;52.198;9.890;2023-04-02T15:51:44;8.60;99.90
20722;DHT22;10522;52.198;9.890;2023-04-02T15:57:21;8.40;99.90
20722;DHT22;10522;52.198;9.890;2023-04-02T16:06:10;9.10;99.90
20722;DHT22;10522;52.198;9.890;2023-04-02T16:08:46;10.40;99.90
20722;DHT22;10522;52.198;9.890;2023-04-02T16:11:19;10.90;99.90
20722;DHT22;10522;52.198;9.890;2023-04-02T16:13:45;11.80;99.90
20722;DHT22;10522;52.198;9.890;2023-04-02T16:16:26;11.90;99.90
20722;DHT22;10522;52.198;9.890;2023-04-02T16:19:03;10.80;99.90
20722;DHT22;10522;52.198;9.890;2023-04-02T16:21:35;10.40;99.90
20722;DHT22;10522;52.198;9.890;2023-04-02T16:24:08;10.70;99.90
20722;DHT22;10522;52.198;9.890;2023-04-02T16:29:54;11.70;99.90
20722;DHT22;10522;52.198;9.890;2023-04-02T16:32:50;10.60;99.90
20722;DHT22;10522;52.198;9.890;2023-04-02T16:41:09;8.80;99.90
20722;DHT22;10522;52.198;9.890;2023-04-02T16:58:29;7.90;99.90
20722;DHT22;10522;52.198;9.890;2023-04-02T17:04:11;7.70;99.90
20722;DHT22;10522;52.198;9.890;2023-04-02T17:06:43;7.60;99.90
20722;DHT22;10522;52.198;9.890;2023-04-02T17:09:16;7.60;99.90
20722;DHT22;10522;52.198;9.890;2023-04-02T17:11:50;7.50;99.90
20722;DHT22;10522;52.198;9.890;2023-04-02T17:14:29;7.40;99.90
20722;DHT22;10522;52.198;9.890;2023-04-02T17:17:03;7.40;99.90
20722;DHT22;10522;52.198;9.890;2023-04-02T17:19:30;7.30;99.90
20722;DHT22;10522;52.198;9.890;2023-04-02T17:22:01;7.30;99.90
20722;DHT22;10522;52.198;9.890;2023-04-02T17:24:37;7.20;99.90
20722;DHT22;10522;52.198;9.890;2023-04-02T17:30:00;7.20;99.90
20722;DHT22;10522;52.198;9.890;2023-04-02T17:32:31;7.10;99.90
20722;DHT22;10522;52.198;9.890;2023-04-02T17:35:16;7.10;99.90
20722;DHT22;10522;52.198;9.890;2023-04-02T17:41:22;7.00;99.90
20722;DHT22;10522;52.198;9.890;2023-04-02T17:55:05;6.80;99.90
20722;DHT22;10522;52.198;9.890;2023-04-02T17:57:43;6.80;99.90
20722;DHT22;10522;52.198;9.890;2023-04-02T18:00:21;6.70;99.90
20722;DHT22;10522;52.198;9.890;2023-04-02T18:08:52;6.60;99.90
20722;DHT22;10522;52.198;9.890;2023-04-02T18:12:14;6.50;99.90
20722;DHT22;10522;52.198;9.890;2023-04-02T18:25:42;6.30;99.90
20722;DHT22;10522;52.198;9.890;2023-04-02T18:31:06;6.10;99.90
20722;DHT22;10522;52.198;9.890;2023-04-02T18:34:06;6.10;99.90
20722;DHT22;10522;52.198;9.890;2023-04-02T18:37:02;6.00;99.90
20722;DHT22;10522;52.198;9.890;2023-04-02T18:45:32;5.90;99.90
20722;DHT22;10522;52.198;9.890;2023-04-02T18:50:49;6.00;99.90
20722;DHT22;10522;52.198;9.890;2023-04-02T18:53:22;6.00;99.90
20722;DHT22;10522;52.198;9.890;2023-04-02T18:56:06;6.00;99.90
20722;DHT22;10522;52.198;9.890;2023-04-02T18:58:55;5.90;99.90
20722;DHT22;10522;52.198;9.890;2023-04-02T19:01:27;5.90;99.90
20722;DHT22;10522;52.198;9.890;2023-04-02T19:04:05;5.80;99.90
20722;DHT22;10522;52.198;9.890;2023-04-02T19:06:38;5.70;99.90
20722;DHT22;10522;52.198;9.890;2023-04-02T19:09:35;5.70;99.90
20722;DHT22;10522;52.198;9.890;2023-04-02T19:12:14;5.60;99.90
20722;DHT22;10522;52.198;9.890;2023-04-02T19:14:41;5.50;99.90
20722;DHT22;10522;52.198;9.890;2023-04-02T19:17:25;5.40;99.90
20722;DHT22;10522;52.198;9.890;2023-04-02T19:20:23;5.30;99.90
20722;DHT22;10522;52.198;9.890;2023-04-02T19:23:26;5.10;99.90
20722;DHT22;10522;52.198;9.890;2023-04-02T19:28:32;5.00;99.90
20722;DHT22;10522;52.198;9.890;2023-04-02T19:41:43;4.60;99.90
20722;DHT22;10522;52.198;9.890;2023-04-02T19:44:14;4.50;99.90
20722;DHT22;10522;52.198;9.890;2023-04-02T19:46:41;4.50;99.90
20722;DHT22;10522;52.198;9.890;2023-04-02T19:51:49;4.40;99.90
20722;DHT22;10522;52.198;9.890;2023-04-02T19:54:17;4.40;99.90
20722;DHT22;10522;52.198;9.890;2023-04-02T19:56:42;4.50;99.90
20722;DHT22;10522;52.198;9.890;2023-04-02T19:59:09;4.40;99.90
20722;DHT22;10522;52.198;9.890;2023-04-02T20:01:36;4.30;99.90
20722;DHT22;10522;52.198;9.890;2023-04-02T20:04:02;4.30;99.90
20722;DHT22;10522;52.198;9.890;2023-04-02T20:06:28;4.20;99.90
20722;DHT22;10522;52.198;9.890;2023-04-02T20:08:56;4.30;99.90
20722;DHT22;10522;52.198;9.890;2023-04-02T20:11:22;4.20;99.90
20722;DHT22;10522;52.198;9.890;2023-04-02T20:13:47;4.30;99.90
20722;DHT22;10522;52.198;9.890;2023-04-02T20:16:15;4.20;99.90
20722;DHT22;10522;52.198;9.890;2023-04-02T20:18:41;4.00;99.90
20722;DHT22;10522;52.198;9.890;2023-04-02T20:21:07;3.90;99.90
20722;DHT22;10522;52.198;9.890;2023-04-02T20:23:34;4.00;99.90
20722;DHT22;10522;52.198;9.890;2023-04-02T20:26:00;4.00;99.90
20722;DHT22;10522;52.198;9.890;2023-04-02T20:28:28;3.90;99.90
20722;DHT22;10522;52.198;9.890;2023-04-02T20:31:03;3.90;99.90
20722;DHT22;10522;52.198;9.890;2023-04-02T20:33:29;3.90;99.90
20722;DHT22;10522;52.198;9.890;2023-04-02T20:36:02;3.70;99.90
20722;DHT22;10522;52.198;9.890;2023-04-02T20:38:28;3.80;99.90
20722;DHT22;10522;52.198;9.890;2023-04-02T20:40:54;3.70;99.90
20722;DHT22;10522;52.198;9.890;2023-04-02T20:43:21;3.70;99.90
20722;DHT22;10522;52.198;9.890;2023-04-02T20:45:55;3.70;99.90
20722;DHT22;10522;52.198;9.890;2023-04-02T20:48:22;3.70;99.90
20722;DHT22;10522;52.198;9.890;2023-04-02T20:50:48;3.60;99.90
20722;DHT22;10522;52.198;9.890;2023-04-02T20:53:15;3.50;99.90
20722;DHT22;10522;52.198;9.890;2023-04-02T20:55:41;3.50;99.90
20722;DHT22;10522;52.198;9.890;2023-04-02T20:58:07;3.40;99.90
20722;DHT22;10522;52.198;9.890;2023-04-02T21:00:33;3.30;99.90
20722;DHT22;10522;52.198;9.890;2023-04-02T21:02:59;3.20;99.90
20722;DHT22;10522;52.198;9.890;2023-04-02T21:05:25;3.20;99.90
20722;DHT22;10522;52.198;9.890;2023-04-02T21:07:51;3.20;99.90